createdAt,value
2023-02-03T00:03:59.565Z,2.61
2023-02-03T00:05:01.651Z,2.81
2023-02-03T00:06:04.670Z,2.20
2023-02-03T00:07:06.665Z,2.34
2023-02-03T00:08:09.980Z,2.32
2023-02-03T00:09:12.392Z,3.18
2023-02-03T00:10:14.949Z,3.22
2023-02-03T00:11:16.938Z,3.20
2023-02-03T00:12:18.850Z,3.72
2023-02-03T00:13:21.560Z,3.90
2023-02-03T00:14:23.296Z,4.07
2023-02-03T00:15:25.366Z,3.42
2023-02-03T00:16:27.386Z,3.44
2023-02-03T00:17:29.384Z,3.28
2023-02-03T00:18:31.260Z,3.40
2023-02-03T00:19:33.137Z,2.85
2023-02-03T00:20:35.017Z,2.89
2023-02-03T00:21:36.886Z,2.86
2023-02-03T00:22:38.736Z,2.88
2023-02-03T00:23:41.793Z,2.87
2023-02-03T00:24:43.584Z,2.83
2023-02-03T00:25:45.493Z,2.67
2023-02-03T00:26:47.232Z,2.77
2023-02-03T00:27:49.046Z,3.09
2023-02-03T00:28:50.801Z,2.66
2023-02-03T00:29:52.616Z,2.75
2023-02-03T00:30:54.425Z,2.77
2023-02-03T00:31:56.716Z,3.46
2023-02-03T00:32:58.949Z,3.06
2023-02-03T00:34:00.847Z,3.02
2023-02-03T00:35:02.936Z,3.52
2023-02-03T00:36:06.195Z,3.59
2023-02-03T00:37:08.009Z,3.48
2023-02-03T00:38:09.849Z,4.41
2023-02-03T00:39:12.450Z,4.28
2023-02-03T00:40:14.572Z,4.21
2023-02-03T00:41:18.170Z,3.49
2023-02-03T00:42:20.017Z,3.60
2023-02-03T00:43:21.897Z,3.24
2023-02-03T00:44:23.836Z,3.15
2023-02-03T00:45:26.351Z,3.13
2023-02-03T00:46:28.224Z,3.50
2023-02-03T00:47:30.186Z,3.16
2023-02-03T00:48:32.215Z,3.09
2023-02-03T00:49:34.137Z,2.93
2023-02-03T00:50:35.927Z,2.77
2023-02-03T00:51:37.718Z,2.31
2023-02-03T00:52:39.659Z,2.53
2023-02-03T00:53:41.462Z,2.33
2023-02-03T00:54:43.436Z,2.45
2023-02-03T00:55:45.296Z,2.71
2023-02-03T00:56:46.984Z,2.89
2023-02-03T00:57:48.871Z,2.30
2023-02-03T00:58:50.852Z,2.61
2023-02-03T00:59:52.754Z,2.87
2023-02-03T01:00:57.353Z,3.05
2023-02-03T01:02:00.847Z,2.63
2023-02-03T01:03:03.420Z,2.56
2023-02-03T01:04:05.483Z,2.83
2023-02-03T01:05:09.122Z,2.45
2023-02-03T01:06:15.444Z,2.52
2023-02-03T01:07:17.592Z,2.74
2023-02-03T01:08:20.078Z,2.61
2023-02-03T01:09:22.009Z,2.84
2023-02-03T01:10:24.099Z,2.65
2023-02-03T01:11:27.900Z,2.87
2023-02-03T01:12:31.167Z,2.69
2023-02-03T01:13:33.692Z,2.76
2023-02-03T01:14:35.546Z,2.83
2023-02-03T01:15:47.442Z,2.46
2023-02-03T01:16:49.398Z,2.61
2023-02-03T01:17:52.259Z,2.17
2023-02-03T01:18:55.656Z,2.46
2023-02-03T01:19:57.480Z,2.94
2023-02-03T01:21:06.368Z,2.74
2023-02-03T01:22:08.330Z,2.55
2023-02-03T01:23:10.228Z,2.50
2023-02-03T01:24:12.284Z,2.52
2023-02-03T01:25:14.178Z,2.31
2023-02-03T01:26:19.504Z,2.33
2023-02-03T01:27:22.767Z,2.68
2023-02-03T01:28:24.569Z,2.57
2023-02-03T01:29:27.748Z,2.41
2023-02-03T01:30:30.401Z,2.37
2023-02-03T01:31:39.913Z,2.19
2023-02-03T01:32:42.283Z,1.95
2023-02-03T01:33:48.819Z,2.29
2023-02-03T01:34:50.747Z,2.36
2023-02-03T01:35:52.662Z,2.40
2023-02-03T01:36:54.624Z,2.27
2023-02-03T01:37:57.461Z,2.19
2023-02-03T01:38:59.348Z,2.07
2023-02-03T01:40:01.330Z,2.25
2023-02-03T01:41:04.349Z,2.13
2023-02-03T01:42:06.182Z,2.02
2023-02-03T01:43:10.091Z,1.96
2023-02-03T01:44:33.688Z,2.24
2023-02-03T01:45:35.468Z,2.13
2023-02-03T01:46:44.657Z,1.88
2023-02-03T01:47:48.227Z,1.83
2023-02-03T01:48:51.731Z,2.05
2023-02-03T01:50:27.684Z,1.87
2023-02-03T01:51:30.616Z,1.76
2023-02-03T01:52:33.337Z,1.89
2023-02-03T01:53:35.305Z,1.71
2023-02-03T01:54:44.052Z,1.80
2023-02-03T01:55:50.324Z,1.77
2023-02-03T01:57:00.989Z,1.67
2023-02-03T01:58:12.997Z,1.83
2023-02-03T01:59:19.729Z,1.48
2023-02-03T02:00:22.155Z,1.80
2023-02-03T02:01:24.131Z,1.60
2023-02-03T02:02:26.761Z,1.64
2023-02-03T02:03:38.248Z,1.55
2023-02-03T02:05:01.881Z,1.54
2023-02-03T02:06:10.617Z,1.52
2023-02-03T02:07:16.511Z,1.61
2023-02-03T02:08:22.423Z,1.81
2023-02-03T02:09:26.753Z,1.78
2023-02-03T02:10:33.557Z,1.73
2023-02-03T02:11:35.465Z,1.79
2023-02-03T02:12:37.693Z,1.71
2023-02-03T02:13:43.030Z,1.68
2023-02-03T02:14:47.699Z,2.12
2023-02-03T02:16:17.914Z,1.88
2023-02-03T02:17:42.699Z,1.92
2023-02-03T02:19:36.226Z,1.99
2023-02-03T02:21:00.095Z,1.86
2023-02-03T02:22:20.850Z,1.97
2023-02-03T02:23:37.199Z,2.05
2023-02-03T02:24:55.150Z,2.24
2023-02-03T02:26:09.292Z,2.64
2023-02-03T02:27:35.416Z,2.34
2023-02-03T02:29:20.241Z,2.25
2023-02-03T02:31:22.181Z,1.97
2023-02-03T02:32:46.401Z,2.49
2023-02-03T02:34:02.634Z,2.07
2023-02-03T02:35:23.767Z,2.46
2023-02-03T02:36:37.652Z,2.45
2023-02-03T02:38:07.684Z,2.61
2023-02-03T02:39:29.398Z,2.24
2023-02-03T02:40:49.818Z,2.35
2023-02-03T02:42:11.273Z,2.57
2023-02-03T02:43:39.879Z,2.29
2023-02-03T02:44:50.668Z,2.40
2023-02-03T02:46:30.805Z,2.67
2023-02-03T02:47:33.827Z,2.62
2023-02-03T02:48:45.839Z,2.67
2023-02-03T02:50:01.094Z,2.75
2023-02-03T02:51:08.622Z,2.47
2023-02-03T02:52:16.961Z,2.33
2023-02-03T02:53:24.698Z,2.64
2023-02-03T02:54:31.495Z,2.83
2023-02-03T02:55:40.077Z,2.40
2023-02-03T02:56:48.248Z,2.70
2023-02-03T02:57:55.675Z,2.60
2023-02-03T02:59:02.836Z,2.82
2023-02-03T03:00:06.051Z,2.77
2023-02-03T03:01:11.837Z,2.46
2023-02-03T03:02:13.732Z,2.61
2023-02-03T03:03:24.412Z,2.70
2023-02-03T03:04:30.366Z,2.19
2023-02-03T03:05:34.494Z,2.77
2023-02-03T03:06:44.868Z,2.80
2023-02-03T03:08:02.781Z,2.74
2023-02-03T03:09:15.066Z,2.52
2023-02-03T03:10:27.366Z,2.60
2023-02-03T03:11:36.334Z,2.66
2023-02-03T03:12:48.419Z,2.42
2023-02-03T03:13:56.145Z,2.57
2023-02-03T03:15:04.753Z,2.51
2023-02-03T03:16:11.203Z,2.52
2023-02-03T03:17:22.088Z,2.31
2023-02-03T03:18:32.048Z,2.33
2023-02-03T03:19:50.685Z,2.87
2023-02-03T03:20:57.428Z,2.61
2023-02-03T03:22:03.874Z,2.72
2023-02-03T03:23:33.684Z,2.25
2023-02-03T03:24:45.725Z,2.54
2023-02-03T03:25:57.844Z,2.55
2023-02-03T03:27:17.346Z,2.94
2023-02-03T03:28:36.535Z,2.51
2023-02-03T03:30:12.794Z,2.59
2023-02-03T03:31:17.984Z,3.30
2023-02-03T03:32:22.084Z,3.19
2023-02-03T03:33:24.094Z,3.03
2023-02-03T03:34:26.233Z,3.04
2023-02-03T03:35:53.343Z,2.65
2023-02-03T03:37:20.848Z,2.74
2023-02-03T03:38:33.621Z,2.91
2023-02-03T03:39:47.306Z,2.74
2023-02-03T03:40:59.728Z,2.90
2023-02-03T03:42:12.661Z,3.00
2023-02-03T03:43:23.960Z,2.94
2023-02-03T03:44:32.919Z,3.04
2023-02-03T03:45:49.323Z,3.13
2023-02-03T03:47:33.986Z,2.94
2023-02-03T03:49:05.447Z,3.26
2023-02-03T03:50:15.665Z,3.73
2023-02-03T03:51:24.209Z,3.25
2023-02-03T03:52:30.809Z,3.30
2023-02-03T03:53:39.243Z,3.31
2023-02-03T03:54:44.684Z,3.72
2023-02-03T03:55:52.670Z,3.70
2023-02-03T03:57:26.884Z,3.65
2023-02-03T03:58:32.042Z,3.60
2023-02-03T03:59:40.645Z,4.11
2023-02-03T04:00:45.759Z,4.12
2023-02-03T04:01:50.033Z,4.24
2023-02-03T04:02:56.950Z,4.89
2023-02-03T04:04:05.763Z,4.51
2023-02-03T04:05:12.058Z,4.82
2023-02-03T04:06:14.749Z,5.05
2023-02-03T04:07:16.663Z,5.04
2023-02-03T04:08:18.564Z,5.22
2023-02-03T04:09:20.853Z,5.58
2023-02-03T04:10:31.953Z,4.86
2023-02-03T04:11:53.917Z,5.40
2023-02-03T04:12:55.909Z,5.26
2023-02-03T04:13:57.999Z,5.72
2023-02-03T04:14:59.672Z,5.51
2023-02-03T04:16:01.511Z,5.48
2023-02-03T04:17:03.759Z,5.62
2023-02-03T04:18:06.238Z,5.63
2023-02-03T04:19:08.624Z,5.35
2023-02-03T04:20:11.142Z,5.35
2023-02-03T04:21:12.829Z,5.63
2023-02-03T04:22:14.651Z,4.98
2023-02-03T04:23:16.730Z,5.53
2023-02-03T04:24:18.728Z,6.01
2023-02-03T04:25:21.503Z,5.56
2023-02-03T04:26:23.962Z,5.66
2023-02-03T04:27:27.215Z,5.50
2023-02-03T04:28:29.111Z,5.76
2023-02-03T04:29:30.817Z,5.54
2023-02-03T04:30:33.400Z,5.86
2023-02-03T04:31:35.365Z,5.87
2023-02-03T04:32:37.225Z,5.68
2023-02-03T04:33:39.045Z,5.56
2023-02-03T04:34:40.797Z,6.14
2023-02-03T04:35:42.536Z,5.67
2023-02-03T04:36:44.300Z,5.73
2023-02-03T04:37:46.374Z,5.99
2023-02-03T04:38:51.928Z,36.48
2023-02-03T04:39:55.529Z,38.17
2023-02-03T04:40:57.324Z,10.24
2023-02-03T04:41:59.073Z,7.62
2023-02-03T04:43:07.389Z,14.51
2023-02-03T04:44:09.478Z,14.72
2023-02-03T04:45:12.736Z,20.09
2023-02-03T04:46:14.865Z,14.34
2023-02-03T04:47:17.291Z,18.52
2023-02-03T04:48:19.159Z,13.03
2023-02-03T04:49:21.222Z,10.17
2023-02-03T04:50:22.991Z,6.44
2023-02-03T04:51:24.821Z,7.08
2023-02-03T04:52:26.908Z,25.03
2023-02-03T04:53:29.069Z,12.55
2023-02-03T04:54:30.876Z,7.12
2023-02-03T04:55:32.835Z,13.41
2023-02-03T04:56:34.576Z,21.78
2023-02-03T04:57:36.290Z,6.39
2023-02-03T04:58:38.040Z,8.89
2023-02-03T04:59:40.009Z,13.39
2023-02-03T05:00:41.773Z,8.77
2023-02-03T05:01:43.510Z,7.27
2023-02-03T05:02:45.173Z,7.74
2023-02-03T05:03:47.089Z,10.36
2023-02-03T05:04:48.818Z,9.09
2023-02-03T05:05:51.084Z,5.94
2023-02-03T05:06:52.909Z,8.55
2023-02-03T05:07:54.715Z,7.05
2023-02-03T05:08:56.551Z,8.96
2023-02-03T05:09:58.677Z,6.06
2023-02-03T05:11:02.140Z,7.15
2023-02-03T05:12:04.286Z,5.97
2023-02-03T05:13:06.156Z,7.38
2023-02-03T05:14:08.000Z,6.94
2023-02-03T05:15:10.213Z,8.08
2023-02-03T05:16:12.081Z,9.00
2023-02-03T05:17:13.913Z,13.51
2023-02-03T05:18:15.679Z,11.79
2023-02-03T05:19:17.428Z,6.22
2023-02-03T05:20:19.379Z,7.19
2023-02-03T05:21:21.539Z,6.39
2023-02-03T05:22:23.458Z,6.49
2023-02-03T05:23:25.342Z,6.43
2023-02-03T05:24:27.171Z,6.95
2023-02-03T05:25:28.928Z,6.42
2023-02-03T05:26:30.756Z,6.29
2023-02-03T05:27:32.708Z,12.47
2023-02-03T05:28:35.219Z,17.82
2023-02-03T05:29:36.999Z,20.78
2023-02-03T05:30:38.960Z,11.36
2023-02-03T05:31:40.815Z,8.82
2023-02-03T05:32:42.685Z,8.21
2023-02-03T05:33:44.601Z,7.20
2023-02-03T05:34:46.808Z,7.86
2023-02-03T05:35:48.650Z,8.00
2023-02-03T05:36:50.930Z,8.74
2023-02-03T05:37:52.765Z,11.60
2023-02-03T05:38:54.580Z,11.46
2023-02-03T05:40:16.397Z,9.94
2023-02-03T05:41:36.888Z,10.02
2023-02-03T05:42:38.723Z,8.25
2023-02-03T05:43:40.514Z,8.82
2023-02-03T05:44:42.211Z,8.69
2023-02-03T05:45:44.139Z,9.27
2023-02-03T05:46:46.123Z,10.42
2023-02-03T05:47:48.070Z,8.50
2023-02-03T05:48:50.057Z,8.08
2023-02-03T05:49:52.156Z,7.97
2023-02-03T05:50:53.951Z,8.13
2023-02-03T05:51:56.055Z,8.81
2023-02-03T05:52:57.839Z,8.32
2023-02-03T05:53:59.585Z,7.66
2023-02-03T05:55:01.366Z,7.73
2023-02-03T05:56:03.196Z,7.32
2023-02-03T05:57:04.947Z,7.60
2023-02-03T05:58:06.935Z,7.56
2023-02-03T05:59:08.885Z,8.47
2023-02-03T06:00:12.325Z,8.45
2023-02-03T06:01:14.135Z,9.03
2023-02-03T06:02:16.002Z,9.51
2023-02-03T06:03:17.996Z,9.69
2023-02-03T06:04:19.878Z,10.47
2023-02-03T06:05:23.642Z,11.40
2023-02-03T06:06:25.593Z,11.21
2023-02-03T06:07:27.554Z,10.91
2023-02-03T06:08:29.365Z,10.85
2023-02-03T06:09:31.099Z,10.66
2023-02-03T06:10:33.213Z,10.93
2023-02-03T06:11:36.423Z,11.18
2023-02-03T06:12:39.165Z,10.15
2023-02-03T06:13:40.989Z,10.52
2023-02-03T06:14:42.846Z,10.46
2023-02-03T06:15:45.191Z,10.53
2023-02-03T06:16:47.060Z,9.91
2023-02-03T06:17:49.324Z,10.07
2023-02-03T06:18:53.114Z,10.61
2023-02-03T06:19:54.890Z,10.19
2023-02-03T06:20:56.889Z,10.59
2023-02-03T06:21:58.715Z,10.45
2023-02-03T06:23:01.261Z,10.19
2023-02-03T06:24:03.799Z,9.73
2023-02-03T06:25:06.448Z,9.88
2023-02-03T06:26:08.266Z,9.13
2023-02-03T06:27:10.069Z,9.18
2023-02-03T06:28:11.899Z,9.18
2023-02-03T06:29:13.752Z,7.89
2023-02-03T06:30:15.698Z,7.50
2023-02-03T06:31:17.824Z,7.50
2023-02-03T06:32:19.741Z,7.43
2023-02-03T06:33:21.657Z,7.43
2023-02-03T06:34:23.932Z,9.42
2023-02-03T06:35:25.789Z,7.56
2023-02-03T06:36:27.476Z,6.44
2023-02-03T06:37:29.355Z,6.82
2023-02-03T06:38:31.279Z,6.33
2023-02-03T06:39:33.157Z,6.66
2023-02-03T06:40:34.949Z,6.11
2023-02-03T06:41:36.832Z,6.37
2023-02-03T06:42:38.921Z,5.57
2023-02-03T06:43:40.683Z,5.72
2023-02-03T06:44:42.465Z,6.37
2023-02-03T06:45:47.399Z,5.94
2023-02-03T06:46:50.721Z,6.26
2023-02-03T06:47:52.975Z,6.16
2023-02-03T06:48:54.775Z,5.92
2023-02-03T06:49:56.684Z,6.48
2023-02-03T06:50:58.587Z,5.93
2023-02-03T06:52:00.410Z,6.01
2023-02-03T06:53:02.162Z,5.99
2023-02-03T06:54:04.982Z,5.88
2023-02-03T06:55:07.626Z,5.96
2023-02-03T06:56:09.407Z,6.26
2023-02-03T06:57:11.645Z,5.58
2023-02-03T06:58:13.804Z,5.85
2023-02-03T06:59:15.773Z,6.41
2023-02-03T07:00:19.500Z,6.21
2023-02-03T07:01:21.644Z,5.98
2023-02-03T07:02:23.898Z,6.07
2023-02-03T07:03:25.771Z,5.99
2023-02-03T07:04:33.221Z,6.29
2023-02-03T07:05:37.382Z,6.39
2023-02-03T07:06:39.203Z,6.56
2023-02-03T07:07:40.955Z,6.82
2023-02-03T07:08:42.934Z,7.39
2023-02-03T07:09:44.691Z,6.86
2023-02-03T07:10:46.518Z,7.70
2023-02-03T07:11:48.266Z,7.78
2023-02-03T07:12:51.063Z,8.31
2023-02-03T07:13:53.511Z,7.68
2023-02-03T07:14:55.312Z,7.40
2023-02-03T07:15:57.401Z,8.00
2023-02-03T07:16:59.224Z,7.55
2023-02-03T07:18:01.035Z,7.30
2023-02-03T07:19:04.152Z,7.34
2023-02-03T07:20:06.312Z,6.73
2023-02-03T07:21:08.330Z,6.46
2023-02-03T07:22:12.928Z,6.85
2023-02-03T07:23:14.895Z,6.84
2023-02-03T07:24:16.760Z,7.14
2023-02-03T07:25:18.587Z,7.61
2023-02-03T07:26:23.223Z,7.26
2023-02-03T07:27:25.409Z,6.68
2023-02-03T07:28:27.274Z,6.96
2023-02-03T07:29:29.058Z,7.14
2023-02-03T07:30:31.195Z,6.83
2023-02-03T07:31:33.258Z,6.60
2023-02-03T07:32:35.719Z,6.62
2023-02-03T07:33:39.145Z,6.78
2023-02-03T07:34:41.079Z,6.94
2023-02-03T07:35:42.798Z,6.70
2023-02-03T07:36:44.607Z,6.40
2023-02-03T07:37:47.369Z,6.69
2023-02-03T07:38:49.077Z,6.82
2023-02-03T07:39:50.827Z,6.68
2023-02-03T07:40:56.092Z,6.75
2023-02-03T07:41:58.520Z,6.36
2023-02-03T07:43:02.325Z,6.88
2023-02-03T07:44:04.348Z,6.61
2023-02-03T07:45:06.473Z,6.53
2023-02-03T07:46:08.483Z,6.56
2023-02-03T07:47:12.459Z,6.89
2023-02-03T07:48:15.019Z,7.57
2023-02-03T07:49:16.779Z,6.81
2023-02-03T07:50:18.680Z,6.62
2023-02-03T07:51:20.567Z,6.33
2023-02-03T07:52:22.441Z,7.24
2023-02-03T07:53:26.467Z,7.29
2023-02-03T07:54:28.276Z,8.56
2023-02-03T07:55:30.798Z,16.68
2023-02-03T07:56:33.391Z,12.31
2023-02-03T07:57:35.334Z,8.81
2023-02-03T07:58:37.338Z,17.86
2023-02-03T07:59:39.121Z,13.65
2023-02-03T08:00:40.918Z,8.29
2023-02-03T08:01:42.810Z,6.05
2023-02-03T08:02:45.112Z,7.62
2023-02-03T08:03:47.000Z,7.66
2023-02-03T08:04:48.863Z,7.99
2023-02-03T08:05:52.303Z,7.17
2023-02-03T08:06:56.566Z,6.67
2023-02-03T08:07:59.406Z,8.54
2023-02-03T08:09:01.238Z,7.34
2023-02-03T08:10:03.774Z,6.30
2023-02-03T08:11:05.619Z,6.25
2023-02-03T08:12:07.558Z,6.32
2023-02-03T08:13:09.437Z,6.14
2023-02-03T08:14:11.284Z,6.34
2023-02-03T08:15:14.951Z,6.35
2023-02-03T08:16:17.116Z,6.49
2023-02-03T08:17:18.960Z,6.82
2023-02-03T08:18:20.685Z,8.97
2023-02-03T08:19:22.594Z,8.03
2023-02-03T08:20:24.489Z,7.22
2023-02-03T08:21:26.463Z,7.71
2023-02-03T08:22:28.534Z,10.89
2023-02-03T08:23:31.233Z,11.00
2023-02-03T08:24:33.139Z,9.19
2023-02-03T08:25:35.019Z,8.34
2023-02-03T08:26:37.394Z,8.26
2023-02-03T08:27:40.175Z,7.85
2023-02-03T08:28:42.022Z,8.59
2023-02-03T08:29:45.935Z,6.47
2023-02-03T08:30:47.907Z,6.39
2023-02-03T08:31:49.878Z,6.00
2023-02-03T08:32:51.978Z,6.72
2023-02-03T08:33:55.970Z,10.55
2023-02-03T08:34:57.816Z,16.05
2023-02-03T08:36:01.088Z,26.18
2023-02-03T08:37:03.718Z,44.08
2023-02-03T08:38:05.603Z,28.57
2023-02-03T08:39:07.648Z,52.95
2023-02-03T08:40:10.649Z,36.10
2023-02-03T08:41:18.335Z,22.72
2023-02-03T08:42:20.746Z,20.16
2023-02-03T08:43:22.768Z,21.39
2023-02-03T08:44:24.827Z,37.59
2023-02-03T08:45:27.032Z,20.64
2023-02-03T08:46:28.960Z,17.26
2023-02-03T08:47:30.804Z,31.25
2023-02-03T08:48:33.012Z,26.14
2023-02-03T08:49:35.915Z,25.41
2023-02-03T08:50:37.758Z,14.36
2023-02-03T08:51:40.683Z,10.68
2023-02-03T08:52:42.527Z,11.20
2023-02-03T08:53:44.361Z,10.85
2023-02-03T08:54:47.049Z,9.98
2023-02-03T08:55:48.814Z,9.60
2023-02-03T08:56:51.643Z,11.75
2023-02-03T08:57:53.522Z,10.15
2023-02-03T08:58:56.095Z,12.07
2023-02-03T08:59:58.116Z,10.81
2023-02-03T09:01:08.752Z,9.34
2023-02-03T09:02:15.870Z,7.79
2023-02-03T09:03:17.601Z,8.93
2023-02-03T09:04:24.522Z,11.13
2023-02-03T09:05:26.807Z,14.80
2023-02-03T09:06:30.161Z,16.68
2023-02-03T09:07:32.323Z,11.99
2023-02-03T09:08:36.176Z,9.94
2023-02-03T09:09:37.937Z,9.59
2023-02-03T09:10:39.929Z,10.04
2023-02-03T09:11:42.975Z,11.30
2023-02-03T09:12:44.804Z,9.44
2023-02-03T09:13:46.677Z,10.11
2023-02-03T09:14:48.667Z,9.42
2023-02-03T09:15:50.891Z,9.17
2023-02-03T09:16:53.104Z,10.57
2023-02-03T09:17:56.951Z,12.10
2023-02-03T09:18:58.945Z,18.26
2023-02-03T09:20:00.891Z,14.98
2023-02-03T09:21:07.183Z,12.02
2023-02-03T09:22:09.470Z,9.05
2023-02-03T09:23:11.507Z,7.97
2023-02-03T09:24:13.304Z,8.19
2023-02-03T09:25:16.321Z,8.29
2023-02-03T09:26:18.452Z,7.86
2023-02-03T09:27:20.149Z,8.62
2023-02-03T09:28:21.961Z,7.77
2023-02-03T09:29:24.241Z,7.45
2023-02-03T09:30:26.960Z,7.36
2023-02-03T09:31:28.955Z,8.69
2023-02-03T09:32:30.879Z,9.52
2023-02-03T09:33:33.377Z,7.48
2023-02-03T09:34:35.187Z,8.59
2023-02-03T09:35:37.018Z,9.08
2023-02-03T09:36:39.239Z,8.50
2023-02-03T09:37:41.830Z,8.96
2023-02-03T09:38:43.664Z,7.41
2023-02-03T09:39:45.662Z,7.04
2023-02-03T09:41:09.306Z,7.19
2023-02-03T09:42:31.951Z,6.59
2023-02-03T09:43:55.178Z,8.59
2023-02-03T09:45:17.934Z,9.01
2023-02-03T09:46:25.940Z,9.53
2023-02-03T09:47:33.810Z,7.97
2023-02-03T09:48:43.910Z,7.16
2023-02-03T09:49:55.693Z,7.36
2023-02-03T09:50:57.635Z,8.53
2023-02-03T09:52:09.332Z,7.41
2023-02-03T09:53:45.233Z,8.53
2023-02-03T09:55:34.169Z,9.24
2023-02-03T09:56:39.483Z,8.52
2023-02-03T09:57:55.972Z,9.07
2023-02-03T09:58:58.326Z,8.26
2023-02-03T10:00:13.939Z,8.53
2023-02-03T10:01:20.137Z,7.98
2023-02-03T10:03:04.167Z,7.44
2023-02-03T10:04:28.121Z,9.00
2023-02-03T10:05:42.006Z,7.30
2023-02-03T10:06:47.183Z,7.96
2023-02-03T10:08:28.519Z,9.14
2023-02-03T10:09:52.366Z,12.21
2023-02-03T10:11:11.736Z,10.09
2023-02-03T10:12:37.402Z,8.60
2023-02-03T10:14:13.705Z,10.22
2023-02-03T10:15:27.734Z,8.60
2023-02-03T10:17:31.533Z,7.80
2023-02-03T10:18:52.388Z,10.03
2023-02-03T10:20:02.155Z,8.01
2023-02-03T10:21:19.445Z,7.62
2023-02-03T10:22:28.382Z,8.54
2023-02-03T10:23:35.442Z,7.97
2023-02-03T10:25:00.271Z,8.02
2023-02-03T10:26:07.557Z,7.75
2023-02-03T10:27:18.442Z,7.33
2023-02-03T10:28:23.886Z,7.83
2023-02-03T10:29:35.077Z,7.72
2023-02-03T10:30:45.421Z,8.19
2023-02-03T10:31:48.044Z,7.22
2023-02-03T10:33:00.535Z,7.19
2023-02-03T10:34:12.229Z,9.39
2023-02-03T10:35:14.492Z,14.14
2023-02-03T10:36:35.349Z,11.43
2023-02-03T10:37:49.431Z,9.71
2023-02-03T10:39:31.024Z,11.70
2023-02-03T10:40:32.925Z,14.10
2023-02-03T10:41:35.028Z,14.02
2023-02-03T10:42:56.389Z,14.40
2023-02-03T10:44:00.140Z,12.54
2023-02-03T10:45:04.331Z,10.95
2023-02-03T10:46:06.303Z,10.53
2023-02-03T10:47:27.186Z,9.40
2023-02-03T10:48:29.937Z,12.24
2023-02-03T10:49:31.837Z,11.15
2023-02-03T10:50:35.989Z,10.08
2023-02-03T10:51:50.403Z,9.13
2023-02-03T10:52:52.453Z,8.18
2023-02-03T10:53:54.442Z,7.27
2023-02-03T10:54:56.556Z,7.02
2023-02-03T10:56:04.665Z,6.86
2023-02-03T10:57:16.642Z,7.04
2023-02-03T10:58:27.453Z,6.90
2023-02-03T10:59:42.154Z,5.91
2023-02-03T11:00:44.142Z,6.27
2023-02-03T11:01:49.161Z,6.88
2023-02-03T11:03:26.151Z,6.51
2023-02-03T11:04:33.595Z,6.43
2023-02-03T11:05:35.495Z,6.93
2023-02-03T11:06:56.241Z,6.86
2023-02-03T11:07:58.186Z,6.75
2023-02-03T11:09:00.776Z,7.17
2023-02-03T11:10:02.669Z,7.45
2023-02-03T11:11:31.327Z,7.28
2023-02-03T11:12:33.213Z,6.87
2023-02-03T11:13:35.420Z,6.48
2023-02-03T11:14:40.606Z,6.47
2023-02-03T11:16:17.297Z,6.62
2023-02-03T11:17:29.871Z,7.12
2023-02-03T11:18:59.907Z,7.44
2023-02-03T11:20:16.496Z,10.37
2023-02-03T11:21:22.648Z,24.74
2023-02-03T11:22:32.153Z,24.28
2023-02-03T11:23:34.510Z,24.37
2023-02-03T11:24:42.986Z,27.05
2023-02-03T11:25:44.897Z,23.87
2023-02-03T11:26:59.441Z,21.70
2023-02-03T11:28:10.743Z,15.30
2023-02-03T11:29:23.873Z,19.19
2023-02-03T11:30:31.835Z,16.68
2023-02-03T11:31:36.555Z,13.22
2023-02-03T11:32:41.940Z,12.40
2023-02-03T11:33:48.770Z,12.88
2023-02-03T11:35:04.428Z,10.51
2023-02-03T11:36:06.772Z,9.75
2023-02-03T11:37:38.641Z,7.71
2023-02-03T11:38:42.407Z,8.48
2023-02-03T11:39:44.302Z,8.35
2023-02-03T11:40:46.093Z,7.43
2023-02-03T11:41:48.955Z,8.36
2023-02-03T11:42:50.763Z,9.60
2023-02-03T11:43:55.944Z,10.81
2023-02-03T11:45:19.351Z,9.77
2023-02-03T11:46:21.775Z,8.84
2023-02-03T11:47:24.020Z,9.02
2023-02-03T11:48:35.701Z,8.19
2023-02-03T11:50:12.279Z,8.27
2023-02-03T11:51:40.254Z,7.95
2023-02-03T11:53:10.217Z,8.36
2023-02-03T11:54:39.765Z,8.05
2023-02-03T11:56:03.154Z,8.25
2023-02-03T11:57:44.939Z,7.62
2023-02-03T11:59:19.446Z,7.33
2023-02-03T12:00:41.827Z,8.23
2023-02-03T12:02:29.440Z,8.03
2023-02-03T12:04:20.197Z,7.34
2023-02-03T12:05:41.282Z,8.08
2023-02-03T12:07:05.009Z,8.34
2023-02-03T12:08:36.679Z,8.06
2023-02-03T12:10:00.063Z,7.72
2023-02-03T12:11:22.461Z,7.85
2023-02-03T12:12:28.420Z,8.51
2023-02-03T12:14:08.045Z,9.86
2023-02-03T12:16:00.208Z,8.88
2023-02-03T12:17:39.983Z,8.89
2023-02-03T12:19:11.005Z,9.24
2023-02-03T12:20:34.694Z,8.81
2023-02-03T12:21:45.705Z,9.29
2023-02-03T12:23:12.330Z,9.85
2023-02-03T12:24:50.139Z,8.49
2023-02-03T12:26:03.772Z,8.83
2023-02-03T12:27:37.960Z,9.08
2023-02-03T12:28:50.308Z,10.00
2023-02-03T12:30:02.398Z,9.64
2023-02-03T12:31:10.050Z,9.29
2023-02-03T12:32:24.648Z,9.00
2023-02-03T12:33:48.769Z,8.60
2023-02-03T12:35:13.417Z,7.99
2023-02-03T12:36:30.035Z,8.57
2023-02-03T12:37:46.781Z,8.66
2023-02-03T12:38:54.770Z,8.04
2023-02-03T12:40:04.811Z,8.89
2023-02-03T12:41:18.678Z,8.78
2023-02-03T12:42:31.079Z,8.68
2023-02-03T12:43:42.685Z,9.50
2023-02-03T12:44:57.729Z,9.89
2023-02-03T12:46:07.669Z,11.15
2023-02-03T12:47:30.557Z,9.67
2023-02-03T12:48:48.481Z,9.44
2023-02-03T12:50:05.565Z,8.99
2023-02-03T12:51:23.875Z,8.62
2023-02-03T12:52:39.545Z,8.70
2023-02-03T12:53:50.186Z,8.12
2023-02-03T12:55:08.232Z,7.80
2023-02-03T12:56:24.547Z,8.13
2023-02-03T12:58:01.929Z,8.14
2023-02-03T12:59:15.960Z,7.93
2023-02-03T13:00:37.007Z,8.64
2023-02-03T13:01:54.976Z,8.28
2023-02-03T13:03:06.278Z,8.20
2023-02-03T13:04:18.650Z,7.63
2023-02-03T13:05:36.022Z,8.01
2023-02-03T13:07:07.246Z,7.38
2023-02-03T13:08:18.158Z,7.79
2023-02-03T13:09:48.228Z,7.40
2023-02-03T13:11:15.402Z,7.76
2023-02-03T13:12:34.262Z,8.71
2023-02-03T13:13:44.468Z,8.17
2023-02-03T13:15:03.871Z,8.50
2023-02-03T13:16:11.682Z,8.62
2023-02-03T13:17:18.701Z,8.43
2023-02-03T13:18:29.616Z,8.15
2023-02-03T13:19:47.133Z,8.26
2023-02-03T13:20:48.989Z,7.89
2023-02-03T13:21:52.972Z,8.91
2023-02-03T13:22:54.772Z,9.03
2023-02-03T13:23:56.996Z,9.25
2023-02-03T13:25:09.497Z,8.00
2023-02-03T13:26:48.570Z,8.63
2023-02-03T13:28:07.915Z,8.99
2023-02-03T13:29:49.013Z,8.42
2023-02-03T13:31:07.662Z,9.24
2023-02-03T13:32:24.479Z,8.66
2023-02-03T13:33:44.639Z,9.24
2023-02-03T13:35:02.339Z,8.99
2023-02-03T13:36:33.241Z,8.85
2023-02-03T13:37:49.736Z,8.82
2023-02-03T13:38:51.773Z,8.73
2023-02-03T13:40:05.269Z,10.04
2023-02-03T13:41:28.631Z,9.22
2023-02-03T13:42:43.338Z,9.52
2023-02-03T13:43:51.504Z,10.06
2023-02-03T13:44:59.594Z,10.32
2023-02-03T13:46:03.962Z,9.48
2023-02-03T13:47:14.415Z,9.46
2023-02-03T13:48:26.881Z,9.38
2023-02-03T13:49:35.233Z,9.07
2023-02-03T13:50:39.687Z,9.15
2023-02-03T13:51:46.541Z,9.82
2023-02-03T13:53:03.532Z,9.48
2023-02-03T13:54:14.788Z,11.56
2023-02-03T13:55:38.723Z,10.22
2023-02-03T13:56:41.123Z,11.15
2023-02-03T13:57:43.224Z,11.21
2023-02-03T13:59:21.329Z,12.49
2023-02-03T14:01:00.600Z,11.64
2023-02-03T14:02:24.444Z,14.08
2023-02-03T14:03:26.373Z,13.50
2023-02-03T14:04:28.240Z,12.74
2023-02-03T14:05:52.589Z,10.89
2023-02-03T14:06:58.044Z,11.47
2023-02-03T14:08:25.982Z,11.72
2023-02-03T14:09:30.830Z,11.77
2023-02-03T14:10:32.702Z,12.24
2023-02-03T14:11:34.776Z,11.95
2023-02-03T14:12:40.237Z,11.68
2023-02-03T14:13:42.035Z,12.09
2023-02-03T14:14:53.150Z,11.78
2023-02-03T14:16:15.324Z,11.41
2023-02-03T14:17:35.555Z,11.93
2023-02-03T14:18:46.804Z,13.09
2023-02-03T14:19:51.885Z,13.49
2023-02-03T14:21:09.792Z,13.10
2023-02-03T14:22:18.345Z,12.36
2023-02-03T14:23:28.346Z,18.59
2023-02-03T14:24:42.213Z,32.65
2023-02-03T14:26:00.510Z,26.30
2023-02-03T14:27:06.856Z,46.82
2023-02-03T14:28:16.541Z,24.54
2023-02-03T14:29:32.551Z,21.38
2023-02-03T14:31:06.374Z,19.35
2023-02-03T14:32:12.776Z,14.81
2023-02-03T14:33:14.780Z,17.05
2023-02-03T14:34:17.391Z,17.15
2023-02-03T14:35:25.530Z,16.95
2023-02-03T14:36:35.104Z,18.73
2023-02-03T14:37:37.268Z,14.33
2023-02-03T14:38:39.414Z,14.10
2023-02-03T14:40:06.950Z,13.54
2023-02-03T14:41:09.778Z,11.81
2023-02-03T14:42:28.676Z,11.95
2023-02-03T14:44:05.901Z,13.70
2023-02-03T14:45:16.932Z,12.62
2023-02-03T14:46:53.780Z,14.06
2023-02-03T14:48:45.605Z,10.96
2023-02-03T14:50:18.274Z,11.71
2023-02-03T14:51:47.552Z,12.16
2023-02-03T14:53:21.809Z,12.01
2023-02-03T14:54:23.693Z,13.23
2023-02-03T14:55:56.669Z,12.54
2023-02-03T14:57:21.271Z,12.36
2023-02-03T14:58:56.909Z,12.74
2023-02-03T15:00:23.122Z,11.96
2023-02-03T15:01:48.300Z,10.75
2023-02-03T15:03:11.352Z,10.02
2023-02-03T15:04:13.276Z,8.80
2023-02-03T15:05:15.322Z,12.80
2023-02-03T15:06:37.885Z,11.12
2023-02-03T15:07:49.373Z,9.44
2023-02-03T15:08:53.263Z,9.65